createdAt,value
2023-02-14T00:00:49.790Z,2.76
2023-02-14T00:03:16.445Z,2.76
2023-02-14T00:05:43.116Z,2.86
2023-02-14T00:08:09.748Z,2.84
2023-02-14T00:10:36.381Z,2.84
2023-02-14T00:13:05.973Z,2.88
2023-02-14T00:15:32.481Z,2.90
2023-02-14T00:18:03.066Z,2.87
2023-02-14T00:20:29.916Z,2.80
2023-02-14T00:22:56.500Z,2.84
2023-02-14T00:25:23.166Z,2.81
2023-02-14T00:27:49.890Z,2.73
2023-02-14T00:30:16.861Z,2.67
2023-02-14T00:32:43.566Z,2.71
2023-02-14T00:35:11.280Z,2.69
2023-02-14T00:37:40.656Z,2.72
2023-02-14T00:40:07.996Z,2.86
2023-02-14T00:42:34.893Z,2.70
2023-02-14T00:45:01.383Z,2.64
2023-02-14T00:47:28.121Z,2.61
2023-02-14T00:49:54.714Z,2.61
2023-02-14T00:52:21.361Z,2.63
2023-02-14T00:54:47.932Z,2.57
2023-02-14T00:57:14.468Z,2.62
2023-02-14T00:59:59.240Z,2.61
2023-02-14T01:02:26.845Z,2.56
2023-02-14T01:04:53.470Z,2.59
2023-02-14T01:07:22.691Z,2.51
2023-02-14T01:09:49.321Z,2.53
2023-02-14T01:12:15.902Z,2.51
2023-02-14T01:15:01.149Z,2.65
2023-02-14T01:17:36.922Z,2.63
2023-02-14T01:20:04.361Z,2.58
2023-02-14T01:30:51.860Z,2.50
2023-02-14T01:33:18.503Z,2.54
2023-02-14T01:35:45.241Z,2.47
2023-02-14T01:38:11.808Z,2.41
2023-02-14T01:40:44.154Z,2.37
2023-02-14T01:43:17.332Z,2.39
2023-02-14T01:45:44.720Z,2.40
2023-02-14T01:48:13.153Z,2.41
2023-02-14T01:50:45.165Z,2.32
2023-02-14T01:53:24.442Z,2.31
2023-02-14T01:55:58.772Z,2.27
2023-02-14T01:58:29.757Z,2.23
2023-02-14T02:00:59.869Z,2.12
2023-02-14T02:03:32.438Z,2.05
2023-02-14T02:06:05.120Z,2.10
2023-02-14T02:08:35.481Z,2.15
2023-02-14T02:11:02.273Z,2.10
2023-02-14T02:13:28.904Z,2.02
2023-02-14T02:16:26.044Z,2.04
2023-02-14T02:19:13.806Z,2.15
2023-02-14T02:21:59.490Z,2.12
2023-02-14T02:25:00.259Z,2.14
2023-02-14T02:27:45.161Z,2.15
2023-02-14T02:30:20.911Z,2.10
2023-02-14T02:33:19.848Z,2.08
2023-02-14T02:36:16.088Z,2.08
2023-02-14T02:38:52.288Z,2.06
2023-02-14T02:41:35.649Z,2.01
2023-02-14T02:44:14.568Z,1.95
2023-02-14T02:46:49.805Z,1.95
2023-02-14T02:49:44.232Z,1.86
2023-02-14T02:52:50.426Z,1.73
2023-02-14T02:55:25.570Z,1.76
2023-02-14T02:57:55.261Z,1.81
2023-02-14T03:00:24.238Z,1.73
2023-02-14T03:03:13.915Z,1.71
2023-02-14T03:05:41.323Z,1.70
2023-02-14T03:08:07.851Z,1.68
2023-02-14T03:10:38.091Z,1.70
2023-02-14T03:13:10.899Z,1.76
2023-02-14T03:16:08.001Z,1.67
2023-02-14T03:18:58.139Z,1.63
2023-02-14T03:21:54.484Z,1.64
2023-02-14T03:24:46.222Z,1.63
2023-02-14T03:27:24.955Z,1.67
2023-02-14T03:30:03.827Z,1.65
2023-02-14T03:32:51.819Z,1.64
2023-02-14T03:35:34.765Z,1.61
2023-02-14T03:38:15.791Z,1.62
2023-02-14T03:40:58.219Z,1.48
2023-02-14T03:43:31.805Z,1.45
2023-02-14T03:46:28.552Z,1.60
2023-02-14T03:48:58.603Z,1.49
2023-02-14T03:51:27.886Z,1.50
2023-02-14T03:53:57.666Z,1.52
2023-02-14T03:56:36.481Z,1.48
2023-02-14T03:59:10.534Z,1.50
2023-02-14T04:02:01.208Z,1.46
2023-02-14T04:04:32.665Z,1.42
2023-02-14T04:06:59.235Z,1.39
2023-02-14T04:09:25.790Z,1.38
2023-02-14T04:11:52.451Z,1.42
2023-02-14T04:14:19.048Z,1.46
2023-02-14T04:17:04.169Z,1.43
2023-02-14T04:19:30.782Z,1.50
2023-02-14T04:21:57.317Z,1.46
2023-02-14T04:24:23.895Z,1.44
2023-02-14T04:27:09.016Z,1.40
2023-02-14T04:29:49.419Z,1.41
2023-02-14T04:32:21.688Z,1.42
2023-02-14T04:34:48.844Z,1.33
2023-02-14T04:37:17.922Z,1.31
2023-02-14T04:39:44.551Z,1.30
2023-02-14T04:42:11.228Z,1.30
2023-02-14T04:44:40.621Z,1.29
2023-02-14T04:47:07.741Z,1.30
2023-02-14T04:49:35.303Z,1.32
2023-02-14T04:52:02.490Z,1.29
2023-02-14T04:54:29.268Z,1.30
2023-02-14T04:56:55.826Z,1.30
2023-02-14T04:59:24.754Z,1.27
2023-02-14T05:01:52.535Z,1.30
2023-02-14T05:04:19.377Z,1.25
2023-02-14T05:06:46.293Z,1.23
2023-02-14T05:09:13.189Z,1.24
2023-02-14T05:11:39.785Z,1.14
2023-02-14T05:14:06.481Z,1.08
2023-02-14T05:16:33.199Z,1.11
2023-02-14T05:18:59.825Z,1.10
2023-02-14T05:21:26.663Z,1.12
2023-02-14T05:23:53.230Z,1.11
2023-02-14T05:26:19.814Z,1.06
2023-02-14T05:28:46.352Z,1.02
2023-02-14T05:31:12.968Z,0.99
2023-02-14T05:33:39.596Z,1.04
2023-02-14T05:36:06.518Z,1.12
2023-02-14T05:38:33.878Z,1.14
2023-02-14T05:41:02.701Z,1.05
2023-02-14T05:43:30.354Z,1.10
2023-02-14T05:45:57.767Z,1.11
2023-02-14T05:48:24.616Z,1.10
2023-02-14T05:50:51.561Z,0.99
2023-02-14T05:53:18.253Z,1.07
2023-02-14T05:55:45.013Z,1.04
2023-02-14T05:58:12.566Z,1.08
2023-02-14T06:00:41.235Z,1.14
2023-02-14T06:03:08.506Z,1.06
2023-02-14T06:05:35.091Z,1.05
2023-02-14T06:08:01.733Z,1.08
2023-02-14T06:10:28.442Z,1.02
2023-02-14T06:12:57.669Z,1.00
2023-02-14T06:15:24.437Z,0.92
2023-02-14T06:17:52.988Z,0.87
2023-02-14T06:20:19.753Z,0.80
2023-02-14T06:22:46.353Z,0.82
2023-02-14T06:25:13.094Z,0.80
2023-02-14T06:27:39.656Z,0.92
2023-02-14T06:30:06.970Z,0.83
2023-02-14T06:32:33.640Z,0.79
2023-02-14T06:35:00.832Z,0.79
2023-02-14T06:37:27.374Z,0.79
2023-02-14T06:39:53.972Z,0.81
2023-02-14T06:42:20.605Z,0.83
2023-02-14T06:44:47.150Z,0.86
2023-02-14T06:47:13.754Z,0.83
2023-02-14T06:49:40.392Z,0.87
2023-02-14T06:52:07.133Z,0.83
2023-02-14T06:54:33.776Z,0.89
2023-02-14T06:57:00.544Z,0.87
2023-02-14T06:59:27.193Z,0.88
2023-02-14T07:01:53.994Z,0.88
2023-02-14T07:04:20.698Z,0.82
2023-02-14T07:06:47.370Z,0.87
2023-02-14T07:09:18.242Z,0.84
2023-02-14T07:11:45.759Z,0.90
2023-02-14T07:14:12.685Z,0.88
2023-02-14T07:16:39.344Z,0.80
2023-02-14T07:19:06.281Z,0.83
2023-02-14T07:21:32.854Z,0.89
2023-02-14T07:23:59.478Z,0.88
2023-02-14T07:26:26.095Z,1.01
2023-02-14T07:28:52.724Z,1.07
2023-02-14T07:31:23.547Z,0.98
2023-02-14T07:33:51.577Z,0.97
2023-02-14T07:36:18.869Z,1.10
2023-02-14T07:38:45.493Z,1.08
2023-02-14T07:41:12.131Z,1.07
2023-02-14T07:43:39.740Z,1.15
2023-02-14T07:46:06.925Z,1.05
2023-02-14T07:48:34.450Z,1.04
2023-02-14T07:51:01.807Z,1.13
2023-02-14T07:53:28.683Z,1.15
2023-02-14T07:55:55.421Z,1.32
2023-02-14T07:58:22.092Z,1.35
2023-02-14T08:00:48.881Z,1.45
2023-02-14T08:03:16.104Z,1.45
2023-02-14T08:05:43.086Z,1.52
2023-02-14T08:08:09.728Z,1.54
2023-02-14T08:10:36.311Z,1.61
2023-02-14T08:13:03.647Z,1.73
2023-02-14T08:15:51.507Z,1.89
2023-02-14T08:18:19.383Z,1.94
2023-02-14T08:20:49.744Z,2.06
2023-02-14T08:23:18.107Z,2.24
2023-02-14T08:25:45.065Z,2.34
2023-02-14T08:28:13.673Z,2.45
2023-02-14T08:30:41.387Z,2.67
2023-02-14T08:33:08.207Z,2.89
2023-02-14T08:35:35.937Z,3.12
2023-02-14T08:38:03.245Z,3.40
2023-02-14T08:40:30.434Z,3.61
2023-02-14T08:42:57.048Z,3.71
2023-02-14T08:45:23.644Z,3.71
2023-02-14T08:47:50.635Z,3.84
2023-02-14T08:50:18.883Z,4.12
2023-02-14T08:52:45.939Z,4.36
2023-02-14T08:55:13.754Z,4.34
2023-02-14T08:57:40.742Z,4.40
2023-02-14T09:00:09.872Z,4.69
2023-02-14T09:02:36.641Z,4.76
2023-02-14T09:05:03.658Z,4.78
2023-02-14T09:07:30.492Z,4.91
2023-02-14T09:09:57.086Z,4.96
2023-02-14T09:12:23.715Z,5.03
2023-02-14T09:14:50.293Z,5.22
2023-02-14T09:17:16.964Z,5.37
2023-02-14T09:19:43.610Z,5.59
2023-02-14T09:22:11.465Z,5.80
2023-02-14T09:24:40.071Z,5.84
2023-02-14T09:27:07.656Z,5.87
2023-02-14T09:29:34.626Z,6.05
2023-02-14T09:32:02.561Z,6.19
2023-02-14T09:34:30.048Z,6.30
2023-02-14T09:36:56.764Z,6.49
2023-02-14T09:39:23.600Z,6.56
2023-02-14T09:42:14.957Z,6.61
2023-02-14T09:44:51.721Z,6.88
2023-02-14T09:47:33.309Z,7.00
2023-02-14T09:50:00.557Z,7.09
2023-02-14T09:52:29.922Z,7.18
2023-02-14T09:55:01.203Z,7.29
2023-02-14T09:57:45.030Z,7.40
2023-02-14T10:00:34.352Z,7.36
2023-02-14T10:03:09.873Z,7.54
2023-02-14T10:05:44.189Z,7.66
2023-02-14T10:08:29.421Z,7.86
2023-02-14T10:11:06.317Z,8.00
2023-02-14T10:13:46.209Z,8.08
2023-02-14T10:16:37.680Z,8.17
2023-02-14T10:19:13.914Z,8.37
2023-02-14T10:21:48.117Z,8.27
2023-02-14T10:24:27.564Z,8.60
2023-02-14T10:27:03.156Z,8.85
2023-02-14T10:29:30.059Z,8.91
2023-02-14T10:32:00.312Z,9.13
2023-02-14T10:34:38.925Z,9.07
2023-02-14T10:37:31.987Z,9.19
2023-02-14T10:40:01.552Z,9.30
2023-02-14T10:42:45.581Z,9.52
2023-02-14T10:45:34.353Z,9.74
2023-02-14T10:48:21.141Z,9.87
2023-02-14T10:50:50.759Z,9.81
2023-02-14T10:53:17.311Z,9.78
2023-02-14T10:55:50.332Z,10.02
2023-02-14T10:58:21.134Z,10.24
2023-02-14T11:01:10.063Z,10.52
2023-02-14T11:03:39.333Z,10.60
2023-02-14T11:06:07.146Z,10.87
2023-02-14T11:08:36.597Z,11.11
2023-02-14T11:11:13.813Z,11.25
2023-02-14T11:13:41.137Z,11.33
2023-02-14T11:16:12.882Z,11.28
2023-02-14T11:18:41.107Z,11.72
2023-02-14T11:21:12.134Z,11.96
2023-02-14T11:23:38.717Z,12.19
2023-02-14T11:26:11.739Z,12.46
2023-02-14T11:28:49.421Z,12.60
2023-02-14T11:31:26.126Z,12.64
2023-02-14T11:33:54.245Z,12.66
2023-02-14T11:36:21.563Z,12.79
2023-02-14T11:39:03.081Z,12.82
2023-02-14T11:41:50.617Z,12.98
2023-02-14T11:44:26.981Z,13.14
2023-02-14T11:46:56.038Z,13.21
2023-02-14T11:49:32.809Z,13.53
2023-02-14T11:52:15.360Z,13.61
2023-02-14T11:54:44.857Z,13.74
2023-02-14T11:57:33.305Z,14.08
2023-02-14T12:00:04.719Z,13.51
2023-02-14T12:02:43.522Z,13.48
2023-02-14T12:05:19.042Z,14.18
2023-02-14T12:07:47.820Z,14.70
2023-02-14T12:10:17.376Z,13.50
2023-02-14T12:13:00.504Z,14.08
2023-02-14T12:15:27.108Z,14.22
2023-02-14T12:18:02.495Z,14.56
2023-02-14T12:20:40.739Z,14.64
2023-02-14T12:23:18.247Z,14.79
2023-02-14T12:25:57.784Z,14.96
2023-02-14T12:28:44.653Z,14.45
2023-02-14T12:31:13.299Z,14.45
2023-02-14T12:33:40.878Z,14.66
2023-02-14T12:36:36.267Z,15.12
2023-02-14T12:39:23.234Z,15.26
2023-02-14T12:41:52.813Z,14.44
2023-02-14T12:44:38.198Z,14.25
2023-02-14T12:47:32.218Z,14.45
2023-02-14T12:50:03.879Z,14.49
2023-02-14T12:52:33.492Z,15.00
2023-02-14T12:55:03.074Z,15.32
2023-02-14T12:57:48.119Z,15.08
2023-02-14T13:01:07.333Z,14.70
2023-02-14T13:04:10.746Z,14.82
2023-02-14T13:06:42.860Z,14.86
2023-02-14T13:09:27.140Z,15.14
2023-02-14T13:12:31.791Z,14.84
2023-02-14T13:15:29.695Z,14.66
2023-02-14T13:18:03.652Z,14.65
2023-02-14T13:20:48.056Z,14.76
2023-02-14T13:23:20.699Z,14.46
2023-02-14T13:25:54.353Z,14.29
2023-02-14T13:28:22.008Z,14.37
2023-02-14T13:30:48.777Z,15.02
2023-02-14T13:33:40.639Z,15.91
2023-02-14T13:36:10.125Z,15.69
2023-02-14T13:38:43.503Z,15.88
2023-02-14T13:41:11.087Z,15.30
2023-02-14T13:44:01.762Z,15.79
2023-02-14T13:46:34.431Z,15.56
2023-02-14T13:49:15.092Z,15.98
2023-02-14T13:52:01.273Z,14.89
2023-02-14T13:54:35.836Z,15.90
2023-02-14T13:57:24.856Z,15.96
2023-02-14T14:00:19.553Z,15.90
2023-02-14T14:02:50.020Z,15.97
2023-02-14T14:05:32.478Z,15.90
2023-02-14T14:08:38.767Z,15.86
2023-02-14T14:11:33.271Z,15.64
2023-02-14T14:14:01.778Z,15.74
2023-02-14T14:16:35.135Z,15.50
2023-02-14T14:19:24.693Z,15.25
2023-02-14T14:22:01.770Z,15.46
2023-02-14T14:24:34.363Z,15.26
2023-02-14T14:27:05.903Z,15.33
2023-02-14T14:29:46.821Z,15.08
2023-02-14T14:32:37.817Z,14.88
2023-02-14T14:35:23.224Z,14.70
2023-02-14T14:37:57.245Z,14.92
2023-02-14T14:40:31.678Z,15.28
2023-02-14T14:43:06.356Z,14.87
2023-02-14T14:45:33.000Z,14.50
2023-02-14T14:48:08.259Z,14.72
2023-02-14T14:50:36.512Z,15.11
2023-02-14T14:53:09.725Z,14.99
2023-02-14T14:55:38.188Z,15.02
2023-02-14T14:58:08.990Z,14.83
2023-02-14T15:00:42.497Z,14.69
2023-02-14T15:03:11.955Z,14.58
2023-02-14T15:05:50.212Z,14.85
2023-02-14T15:08:27.784Z,14.68
2023-02-14T15:11:02.643Z,14.74
2023-02-14T15:13:50.655Z,14.87
2023-02-14T15:16:18.527Z,14.72
2023-02-14T15:18:45.784Z,14.58
2023-02-14T15:21:13.647Z,14.61
2023-02-14T15:23:43.979Z,14.49
2023-02-14T15:26:18.152Z,14.31
2023-02-14T15:28:45.056Z,14.36
2023-02-14T15:31:12.014Z,14.27
2023-02-14T15:33:39.204Z,14.22
2023-02-14T15:36:15.377Z,13.91
2023-02-14T15:38:43.354Z,14.18
2023-02-14T15:41:10.335Z,14.18
2023-02-14T15:43:37.860Z,14.11
2023-02-14T15:46:36.940Z,14.03
2023-02-14T15:49:10.637Z,13.91
2023-02-14T15:51:38.478Z,13.81
2023-02-14T15:54:31.145Z,13.85
2023-02-14T15:56:58.805Z,13.68
2023-02-14T15:59:29.803Z,13.82
2023-02-14T16:02:17.192Z,13.72
2023-02-14T16:04:44.320Z,13.63
2023-02-14T16:07:26.639Z,13.48
2023-02-14T16:10:18.156Z,13.27
2023-02-14T16:12:57.857Z,13.14
2023-02-14T16:15:38.791Z,13.00
2023-02-14T16:18:32.020Z,12.88
2023-02-14T16:21:10.921Z,12.81
2023-02-14T16:23:38.013Z,12.60
2023-02-14T16:26:08.399Z,12.54
2023-02-14T16:28:36.920Z,12.40
2023-02-14T16:31:10.130Z,12.29
2023-02-14T16:33:39.615Z,12.18
2023-02-14T16:36:27.981Z,11.73
2023-02-14T16:38:55.575Z,11.53
2023-02-14T16:41:28.667Z,11.44
2023-02-14T16:43:56.308Z,11.37
2023-02-14T16:46:26.177Z,11.36
2023-02-14T16:48:53.141Z,11.12
2023-02-14T16:51:25.804Z,11.02
2023-02-14T16:53:53.687Z,10.95
2023-02-14T16:56:27.921Z,10.81
2023-02-14T16:58:57.478Z,10.53
2023-02-14T17:01:24.544Z,10.37
2023-02-14T17:03:51.244Z,10.53
2023-02-14T17:06:21.623Z,10.23
2023-02-14T17:08:50.827Z,10.03
2023-02-14T17:11:17.634Z,10.16
2023-02-14T17:13:45.519Z,10.10
2023-02-14T17:16:15.582Z,10.02
2023-02-14T17:18:47.536Z,9.90
2023-02-14T17:21:15.874Z,9.74
2023-02-14T17:23:42.495Z,9.75
2023-02-14T17:26:11.124Z,9.73
2023-02-14T17:28:37.991Z,9.64
2023-02-14T17:31:04.965Z,9.51
2023-02-14T17:33:33.204Z,9.42
2023-02-14T17:36:12.075Z,9.42
2023-02-14T17:38:39.777Z,8.92
2023-02-14T17:41:19.353Z,8.83
2023-02-14T17:43:46.190Z,8.83
2023-02-14T17:46:14.258Z,8.76
2023-02-14T17:48:42.097Z,8.76
2023-02-14T17:51:09.583Z,8.72
2023-02-14T17:53:36.278Z,8.75
2023-02-14T17:56:06.774Z,8.87
2023-02-14T17:58:33.437Z,8.77
2023-02-14T18:01:09.069Z,8.71
2023-02-14T18:03:36.092Z,8.63
2023-02-14T18:06:03.924Z,8.55
2023-02-14T18:08:33.960Z,8.48
2023-02-14T18:11:03.924Z,8.50
2023-02-14T18:13:31.695Z,8.31
2023-02-14T18:16:01.945Z,8.19
2023-02-14T18:18:28.514Z,8.07
2023-02-14T18:20:57.190Z,7.86
2023-02-14T18:23:23.812Z,7.75
2023-02-14T18:25:55.961Z,7.70
2023-02-14T18:28:25.021Z,7.64
2023-02-14T18:30:52.671Z,7.60
2023-02-14T18:33:20.175Z,7.51
2023-02-14T18:35:47.329Z,7.45
2023-02-14T18:38:14.344Z,7.41
2023-02-14T18:40:41.440Z,7.31
2023-02-14T18:43:08.001Z,7.16
2023-02-14T18:45:39.350Z,7.04
2023-02-14T18:48:06.249Z,6.87
2023-02-14T18:50:34.031Z,6.71
2023-02-14T18:53:00.816Z,6.64
2023-02-14T18:55:28.731Z,6.64
2023-02-14T18:57:55.384Z,6.67
2023-02-14T19:00:22.684Z,6.72
2023-02-14T19:02:49.295Z,6.66
2023-02-14T19:05:15.866Z,6.60
2023-02-14T19:07:42.401Z,6.63
2023-02-14T19:10:09.988Z,6.60
2023-02-14T19:12:36.869Z,6.59
2023-02-14T19:15:03.653Z,6.47
2023-02-14T19:17:30.252Z,6.40
2023-02-14T19:19:57.237Z,6.39
2023-02-14T19:22:23.889Z,6.31
2023-02-14T19:24:52.996Z,6.19
2023-02-14T19:27:21.479Z,6.05
2023-02-14T19:29:48.328Z,5.86
2023-02-14T19:32:15.022Z,5.78
2023-02-14T19:34:41.605Z,5.73
2023-02-14T19:37:08.305Z,5.67
2023-02-14T19:39:34.956Z,5.63
2023-02-14T19:42:02.239Z,5.61
2023-02-14T19:44:30.963Z,5.46
2023-02-14T19:47:00.206Z,5.39
2023-02-14T19:49:28.430Z,5.36
2023-02-14T19:51:55.644Z,5.28
2023-02-14T19:54:25.538Z,5.22
2023-02-14T19:56:53.422Z,5.21
2023-02-14T19:59:21.761Z,5.16
2023-02-14T20:01:51.236Z,5.05
2023-02-14T20:04:29.332Z,5.04
2023-02-14T20:06:56.659Z,5.10
2023-02-14T20:09:24.153Z,5.05
2023-02-14T20:11:54.412Z,5.06
2023-02-14T20:14:47.131Z,5.11
2023-02-14T20:17:17.939Z,5.04
2023-02-14T20:19:44.501Z,5.05
2023-02-14T20:22:11.081Z,4.99
2023-02-14T20:24:37.795Z,4.87
2023-02-14T20:27:04.536Z,4.85
2023-02-14T20:29:31.168Z,4.85
2023-02-14T20:31:59.901Z,4.79
2023-02-14T20:34:27.239Z,4.82
2023-02-14T20:36:55.545Z,4.83
2023-02-14T20:39:26.761Z,4.76
2023-02-14T20:41:53.955Z,4.73
2023-02-14T20:44:21.708Z,4.75
2023-02-14T20:46:51.563Z,4.63
2023-02-14T20:49:19.610Z,4.60
2023-02-14T20:51:49.573Z,4.64
2023-02-14T20:54:20.448Z,4.61
2023-02-14T20:56:47.428Z,4.63
2023-02-14T20:59:15.154Z,4.49
2023-02-14T21:01:41.775Z,4.46
2023-02-14T21:04:08.548Z,4.58
2023-02-14T21:06:35.778Z,4.57
2023-02-14T21:09:03.764Z,4.52
2023-02-14T21:11:30.596Z,4.37
2023-02-14T21:13:59.864Z,4.29
2023-02-14T21:16:27.574Z,4.27
2023-02-14T21:18:59.046Z,4.22
2023-02-14T21:21:36.340Z,4.22
2023-02-14T21:24:12.573Z,4.20
2023-02-14T21:26:39.569Z,4.19
2023-02-14T21:29:06.844Z,4.20
2023-02-14T21:31:34.366Z,4.20
2023-02-14T21:34:02.582Z,3.91
2023-02-14T21:36:32.146Z,3.93
2023-02-14T21:38:59.141Z,3.82
2023-02-14T21:41:28.313Z,3.85
2023-02-14T21:43:58.396Z,3.75
2023-02-14T21:46:29.332Z,3.71
2023-02-14T21:49:16.623Z,3.71
2023-02-14T21:51:43.810Z,3.82
2023-02-14T21:54:11.231Z,3.80
2023-02-14T21:56:39.177Z,3.83
2023-02-14T21:59:06.066Z,3.71
2023-02-14T22:01:34.868Z,3.73
2023-02-14T22:04:07.790Z,3.66
2023-02-14T22:06:37.221Z,3.57
2023-02-14T22:09:04.447Z,3.66
2023-02-14T22:11:31.429Z,3.61
2023-02-14T22:13:59.209Z,3.54
2023-02-14T22:16:25.866Z,3.45
2023-02-14T22:18:52.831Z,3.36
2023-02-14T22:21:22.593Z,3.36
2023-02-14T22:23:49.603Z,3.25
2023-02-14T22:26:22.944Z,3.23
2023-02-14T22:28:51.008Z,3.21
2023-02-14T22:31:18.887Z,3.18
2023-02-14T22:33:46.857Z,3.16
2023-02-14T22:36:13.844Z,3.13
2023-02-14T22:38:40.524Z,3.12
2023-02-14T22:41:09.154Z,3.15
2023-02-14T22:43:36.746Z,3.12
2023-02-14T22:46:06.044Z,3.07
2023-02-14T22:48:34.142Z,3.12
2023-02-14T22:51:26.681Z,3.11
2023-02-14T22:53:59.114Z,3.09
2023-02-14T22:56:34.294Z,3.06
2023-02-14T22:59:06.415Z,3.09
2023-02-14T23:01:34.368Z,3.09
2023-02-14T23:04:03.390Z,3.04
2023-02-14T23:06:32.431Z,3.02
2023-02-14T23:08:59.309Z,3.04
2023-02-14T23:11:29.014Z,3.07
2023-02-14T23:14:14.678Z,3.10
2023-02-14T23:17:00.588Z,3.13
2023-02-14T23:19:48.865Z,3.09
2023-02-14T23:22:21.443Z,3.04
2023-02-14T23:24:50.029Z,3.01
2023-02-14T23:27:19.147Z,3.04
2023-02-14T23:29:46.015Z,3.05
2023-02-14T23:32:12.960Z,3.08
2023-02-14T23:34:42.365Z,3.03
2023-02-14T23:37:10.292Z,3.00
2023-02-14T23:39:37.702Z,3.05
2023-02-14T23:42:10.618Z,3.06
2023-02-14T23:44:37.468Z,2.91
2023-02-14T23:47:06.315Z,2.98
2023-02-14T23:49:34.222Z,3.03
2023-02-14T23:52:01.714Z,2.98
2023-02-14T23:54:28.338Z,2.96
2023-02-14T23:56:55.406Z,2.86
2023-02-14T23:59:22.194Z,2.83
